sensor_id;sensor_type;location;lat;lon;timestamp;P1;durP1;ratioP1;P2;durP2;ratioP2
48987;SDS011;34799;51.440;-2.534;2023-07-24T00:01:10;4.07;;;0.60;;
48987;SDS011;34799;51.440;-2.534;2023-07-24T00:03:39;3.42;;;0.77;;
48987;SDS011;34799;51.440;-2.534;2023-07-24T00:06:06;3.40;;;0.60;;
48987;SDS011;34799;51.440;-2.534;2023-07-24T00:08:34;3.08;;;0.47;;
48987;SDS011;34799;51.440;-2.534;2023-07-24T00:11:01;4.57;;;0.75;;
48987;SDS011;34799;51.440;-2.534;2023-07-24T00:13:30;4.20;;;0.73;;
48987;SDS011;34799;51.440;-2.534;2023-07-24T00:15:57;2.50;;;0.52;;
48987;SDS011;34799;51.440;-2.534;2023-07-24T00:18:24;5.57;;;0.85;;
48987;SDS011;34799;51.440;-2.534;2023-07-24T00:20:51;4.70;;;0.50;;
48987;SDS011;34799;51.440;-2.534;2023-07-24T00:23:18;2.40;;;0.45;;
48987;SDS011;34799;51.440;-2.534;2023-07-24T00:25:46;3.78;;;0.90;;
48987;SDS011;34799;51.440;-2.534;2023-07-24T00:28:13;2.88;;;0.63;;
48987;SDS011;34799;51.440;-2.534;2023-07-24T00:30:40;2.40;;;0.60;;
48987;SDS011;34799;51.440;-2.534;2023-07-24T00:33:09;1.58;;;0.50;;
48987;SDS011;34799;51.440;-2.534;2023-07-24T00:35:37;1.92;;;0.63;;
48987;SDS011;34799;51.440;-2.534;2023-07-24T00:38:04;5.03;;;0.95;;
48987;SDS011;34799;51.440;-2.534;2023-07-24T00:40:31;1.67;;;0.40;;
48987;SDS011;34799;51.440;-2.534;2023-07-24T00:42:58;1.70;;;0.45;;
48987;SDS011;34799;51.440;-2.534;2023-07-24T00:45:27;3.33;;;0.63;;
48987;SDS011;34799;51.440;-2.534;2023-07-24T00:47:54;3.20;;;0.50;;
48987;SDS011;34799;51.440;-2.534;2023-07-24T00:50:21;3.10;;;0.50;;
48987;SDS011;34799;51.440;-2.534;2023-07-24T00:52:49;3.63;;;0.63;;
48987;SDS011;34799;51.440;-2.534;2023-07-24T00:55:16;3.20;;;0.52;;
48987;SDS011;34799;51.440;-2.534;2023-07-24T00:57:43;3.10;;;0.40;;
48987;SDS011;34799;51.440;-2.534;2023-07-24T01:00:11;2.25;;;0.60;;
48987;SDS011;34799;51.440;-2.534;2023-07-24T01:02:38;2.08;;;0.50;;
48987;SDS011;34799;51.440;-2.534;2023-07-24T01:05:10;1.92;;;0.77;;
48987;SDS011;34799;51.440;-2.534;2023-07-24T01:07:41;5.53;;;1.02;;
48987;SDS011;34799;51.440;-2.534;2023-07-24T01:10:09;4.30;;;0.70;;
48987;SDS011;34799;51.440;-2.534;2023-07-24T01:15:27;2.38;;;0.82;;
48987;SDS011;34799;51.440;-2.534;2023-07-24T01:18:17;2.30;;;0.82;;
48987;SDS011;34799;51.440;-2.534;2023-07-24T01:20:49;2.50;;;0.70;;
48987;SDS011;34799;51.440;-2.534;2023-07-24T01:26:11;6.07;;;0.55;;
48987;SDS011;34799;51.440;-2.534;2023-07-24T01:28:40;3.15;;;0.60;;
48987;SDS011;34799;51.440;-2.534;2023-07-24T01:31:07;7.45;;;1.23;;
48987;SDS011;34799;51.440;-2.534;2023-07-24T01:33:34;2.88;;;0.75;;
48987;SDS011;34799;51.440;-2.534;2023-07-24T01:36:03;2.08;;;0.70;;
48987;SDS011;34799;51.440;-2.534;2023-07-24T01:38:32;6.93;;;0.90;;
48987;SDS011;34799;51.440;-2.534;2023-07-24T01:41:02;2.60;;;0.85;;
48987;SDS011;34799;51.440;-2.534;2023-07-24T01:43:29;2.70;;;0.73;;
48987;SDS011;34799;51.440;-2.534;2023-07-24T01:45:59;3.17;;;0.63;;
48987;SDS011;34799;51.440;-2.534;2023-07-24T01:48:27;2.70;;;0.80;;
48987;SDS011;34799;51.440;-2.534;2023-07-24T01:50:55;3.10;;;0.80;;
48987;SDS011;34799;51.440;-2.534;2023-07-24T01:53:23;1.75;;;0.70;;
48987;SDS011;34799;51.440;-2.534;2023-07-24T01:55:50;2.35;;;0.80;;
48987;SDS011;34799;51.440;-2.534;2023-07-24T01:58:17;2.58;;;0.80;;
48987;SDS011;34799;51.440;-2.534;2023-07-24T02:00:44;2.85;;;0.90;;
48987;SDS011;34799;51.440;-2.534;2023-07-24T02:03:12;2.63;;;0.57;;
48987;SDS011;34799;51.440;-2.534;2023-07-24T02:05:39;4.20;;;0.98;;
48987;SDS011;34799;51.440;-2.534;2023-07-24T02:08:06;2.78;;;0.75;;
48987;SDS011;34799;51.440;-2.534;2023-07-24T02:10:36;1.65;;;0.63;;
48987;SDS011;34799;51.440;-2.534;2023-07-24T02:13:04;3.92;;;0.70;;
48987;SDS011;34799;51.440;-2.534;2023-07-24T02:15:33;4.03;;;0.95;;
48987;SDS011;34799;51.440;-2.534;2023-07-24T02:18:01;2.15;;;0.55;;
48987;SDS011;34799;51.440;-2.534;2023-07-24T02:20:29;6.22;;;1.10;;
48987;SDS011;34799;51.440;-2.534;2023-07-24T02:22:57;1.85;;;0.52;;
48987;SDS011;34799;51.440;-2.534;2023-07-24T02:25:26;4.43;;;0.70;;
48987;SDS011;34799;51.440;-2.534;2023-07-24T02:27:53;5.03;;;0.70;;
48987;SDS011;34799;51.440;-2.534;2023-07-24T02:30:22;3.63;;;0.60;;
48987;SDS011;34799;51.440;-2.534;2023-07-24T02:32:49;2.05;;;0.70;;
48987;SDS011;34799;51.440;-2.534;2023-07-24T02:35:16;4.20;;;0.80;;
48987;SDS011;34799;51.440;-2.534;2023-07-24T02:37:45;2.95;;;0.70;;
48987;SDS011;34799;51.440;-2.534;2023-07-24T02:40:12;1.50;;;0.75;;
48987;SDS011;34799;51.440;-2.534;2023-07-24T02:42:39;2.95;;;0.90;;
48987;SDS011;34799;51.440;-2.534;2023-07-24T02:45:06;6.05;;;0.63;;
48987;SDS011;34799;51.440;-2.534;2023-07-24T02:47:37;6.30;;;0.85;;
48987;SDS011;34799;51.440;-2.534;2023-07-24T02:50:04;3.63;;;0.70;;
48987;SDS011;34799;51.440;-2.534;2023-07-24T02:52:31;3.75;;;0.70;;
48987;SDS011;34799;51.440;-2.534;2023-07-24T02:54:58;3.83;;;1.02;;
48987;SDS011;34799;51.440;-2.534;2023-07-24T02:57:25;3.40;;;0.90;;
48987;SDS011;34799;51.440;-2.534;2023-07-24T02:59:52;2.42;;;0.80;;
48987;SDS011;34799;51.440;-2.534;2023-07-24T03:02:19;2.35;;;0.60;;
48987;SDS011;34799;51.440;-2.534;2023-07-24T03:04:46;2.75;;;1.08;;
48987;SDS011;34799;51.440;-2.534;2023-07-24T03:07:13;1.98;;;0.60;;
48987;SDS011;34799;51.440;-2.534;2023-07-24T03:09:40;2.83;;;0.70;;
48987;SDS011;34799;51.440;-2.534;2023-07-24T03:12:08;2.90;;;1.05;;
48987;SDS011;34799;51.440;-2.534;2023-07-24T03:14:35;2.13;;;0.60;;
48987;SDS011;34799;51.440;-2.534;2023-07-24T03:17:02;3.05;;;0.68;;
48987;SDS011;34799;51.440;-2.534;2023-07-24T03:19:29;2.83;;;0.80;;
48987;SDS011;34799;51.440;-2.534;2023-07-24T03:21:56;1.77;;;0.60;;
48987;SDS011;34799;51.440;-2.534;2023-07-24T03:24:23;3.65;;;1.40;;
48987;SDS011;34799;51.440;-2.534;2023-07-24T03:26:50;2.25;;;0.60;;
48987;SDS011;34799;51.440;-2.534;2023-07-24T03:29:17;0.90;;;0.35;;
48987;SDS011;34799;51.440;-2.534;2023-07-24T03:31:44;2.42;;;0.95;;
48987;SDS011;34799;51.440;-2.534;2023-07-24T03:34:11;4.72;;;1.35;;
48987;SDS011;34799;51.440;-2.534;2023-07-24T03:36:39;1.88;;;0.60;;
48987;SDS011;34799;51.440;-2.534;2023-07-24T03:39:11;1.30;;;0.60;;
48987;SDS011;34799;51.440;-2.534;2023-07-24T03:41:42;1.08;;;0.32;;
48987;SDS011;34799;51.440;-2.534;2023-07-24T03:44:10;3.97;;;0.50;;
48987;SDS011;34799;51.440;-2.534;2023-07-24T03:46:37;3.90;;;0.50;;
48987;SDS011;34799;51.440;-2.534;2023-07-24T03:49:04;2.17;;;0.60;;
48987;SDS011;34799;51.440;-2.534;2023-07-24T03:51:31;2.42;;;0.52;;
48987;SDS011;34799;51.440;-2.534;2023-07-24T03:53:59;1.60;;;1.05;;
48987;SDS011;34799;51.440;-2.534;2023-07-24T03:56:26;3.15;;;0.90;;
48987;SDS011;34799;51.440;-2.534;2023-07-24T03:58:53;1.70;;;0.60;;
48987;SDS011;34799;51.440;-2.534;2023-07-24T04:01:21;2.55;;;0.57;;
48987;SDS011;34799;51.440;-2.534;2023-07-24T04:03:48;2.53;;;0.50;;
48987;SDS011;34799;51.440;-2.534;2023-07-24T04:06:15;2.03;;;0.75;;
48987;SDS011;34799;51.440;-2.534;2023-07-24T04:08:42;3.13;;;0.57;;
48987;SDS011;34799;51.440;-2.534;2023-07-24T04:11:10;1.65;;;0.60;;
48987;SDS011;34799;51.440;-2.534;2023-07-24T04:13:37;2.58;;;0.57;;
48987;SDS011;34799;51.440;-2.534;2023-07-24T04:16:05;5.47;;;1.15;;
48987;SDS011;34799;51.440;-2.534;2023-07-24T04:18:32;1.50;;;0.57;;
48987;SDS011;34799;51.440;-2.534;2023-07-24T04:20:59;2.25;;;0.68;;
48987;SDS011;34799;51.440;-2.534;2023-07-24T04:23:26;2.35;;;0.60;;
48987;SDS011;34799;51.440;-2.534;2023-07-24T04:25:53;1.98;;;0.70;;
48987;SDS011;34799;51.440;-2.534;2023-07-24T04:28:21;3.10;;;0.77;;
48987;SDS011;34799;51.440;-2.534;2023-07-24T04:30:48;2.55;;;0.73;;
48987;SDS011;34799;51.440;-2.534;2023-07-24T04:33:16;1.70;;;0.50;;
48987;SDS011;34799;51.440;-2.534;2023-07-24T04:35:43;2.45;;;0.60;;
48987;SDS011;34799;51.440;-2.534;2023-07-24T04:38:13;2.08;;;0.70;;
48987;SDS011;34799;51.440;-2.534;2023-07-24T04:40:43;2.20;;;0.55;;
48987;SDS011;34799;51.440;-2.534;2023-07-24T04:43:12;2.70;;;0.57;;
48987;SDS011;34799;51.440;-2.534;2023-07-24T04:45:41;2.45;;;0.60;;
48987;SDS011;34799;51.440;-2.534;2023-07-24T04:48:08;2.17;;;0.60;;
48987;SDS011;34799;51.440;-2.534;2023-07-24T04:50:35;2.35;;;0.60;;
48987;SDS011;34799;51.440;-2.534;2023-07-24T04:53:02;2.33;;;0.95;;
48987;SDS011;34799;51.440;-2.534;2023-07-24T04:55:30;1.63;;;0.80;;
48987;SDS011;34799;51.440;-2.534;2023-07-24T04:57:57;2.75;;;0.75;;
48987;SDS011;34799;51.440;-2.534;2023-07-24T05:00:24;3.17;;;0.90;;
48987;SDS011;34799;51.440;-2.534;2023-07-24T05:02:52;2.95;;;0.70;;
48987;SDS011;34799;51.440;-2.534;2023-07-24T05:05:20;3.58;;;0.80;;
48987;SDS011;34799;51.440;-2.534;2023-07-24T05:07:47;4.60;;;0.98;;
48987;SDS011;34799;51.440;-2.534;2023-07-24T05:10:14;1.88;;;0.90;;
48987;SDS011;34799;51.440;-2.534;2023-07-24T05:12:41;3.78;;;0.85;;
48987;SDS011;34799;51.440;-2.534;2023-07-24T05:15:09;3.92;;;0.80;;
48987;SDS011;34799;51.440;-2.534;2023-07-24T05:17:37;1.73;;;0.77;;
48987;SDS011;34799;51.440;-2.534;2023-07-24T05:20:04;6.25;;;1.15;;
48987;SDS011;34799;51.440;-2.534;2023-07-24T05:22:31;2.13;;;0.95;;
48987;SDS011;34799;51.440;-2.534;2023-07-24T05:24:58;3.38;;;0.80;;
48987;SDS011;34799;51.440;-2.534;2023-07-24T05:27:25;4.10;;;0.90;;
48987;SDS011;34799;51.440;-2.534;2023-07-24T05:29:53;2.70;;;0.70;;
48987;SDS011;34799;51.440;-2.534;2023-07-24T05:32:20;4.25;;;1.23;;
48987;SDS011;34799;51.440;-2.534;2023-07-24T05:34:47;3.40;;;0.70;;
48987;SDS011;34799;51.440;-2.534;2023-07-24T05:37:15;3.17;;;0.82;;
48987;SDS011;34799;51.440;-2.534;2023-07-24T05:39:42;2.65;;;0.82;;
48987;SDS011;34799;51.440;-2.534;2023-07-24T05:42:09;1.58;;;0.60;;
48987;SDS011;34799;51.440;-2.534;2023-07-24T05:44:37;3.28;;;0.82;;
48987;SDS011;34799;51.440;-2.534;2023-07-24T05:47:04;3.30;;;1.00;;
48987;SDS011;34799;51.440;-2.534;2023-07-24T05:49:31;3.60;;;1.38;;
48987;SDS011;34799;51.440;-2.534;2023-07-24T05:51:58;1.92;;;0.90;;
48987;SDS011;34799;51.440;-2.534;2023-07-24T05:54:26;4.68;;;1.00;;
48987;SDS011;34799;51.440;-2.534;2023-07-24T05:56:53;3.25;;;1.00;;
48987;SDS011;34799;51.440;-2.534;2023-07-24T05:59:20;3.28;;;0.90;;
48987;SDS011;34799;51.440;-2.534;2023-07-24T06:01:47;5.40;;;1.10;;
48987;SDS011;34799;51.440;-2.534;2023-07-24T06:04:15;2.95;;;1.00;;
48987;SDS011;34799;51.440;-2.534;2023-07-24T06:06:43;3.20;;;0.88;;
48987;SDS011;34799;51.440;-2.534;2023-07-24T06:09:10;3.03;;;0.95;;
48987;SDS011;34799;51.440;-2.534;2023-07-24T06:11:37;3.25;;;1.27;;
48987;SDS011;34799;51.440;-2.534;2023-07-24T06:14:04;3.78;;;1.20;;
48987;SDS011;34799;51.440;-2.534;2023-07-24T06:16:31;1.90;;;0.75;;
48987;SDS011;34799;51.440;-2.534;2023-07-24T06:18:59;0.98;;;0.52;;
48987;SDS011;34799;51.440;-2.534;2023-07-24T06:21:26;1.58;;;0.77;;
48987;SDS011;34799;51.440;-2.534;2023-07-24T06:23:53;2.15;;;0.50;;
48987;SDS011;34799;51.440;-2.534;2023-07-24T06:26:21;2.03;;;0.30;;
48987;SDS011;34799;51.440;-2.534;2023-07-24T06:28:48;0.50;;;0.20;;
48987;SDS011;34799;51.440;-2.534;2023-07-24T06:31:15;2.75;;;0.40;;
48987;SDS011;34799;51.440;-2.534;2023-07-24T06:33:43;1.58;;;0.20;;
48987;SDS011;34799;51.440;-2.534;2023-07-24T06:36:10;0.28;;;0.20;;
48987;SDS011;34799;51.440;-2.534;2023-07-24T06:38:37;0.32;;;0.10;;
48987;SDS011;34799;51.440;-2.534;2023-07-24T06:41:04;0.20;;;0.00;;
48987;SDS011;34799;51.440;-2.534;2023-07-24T06:43:32;0.00;;;0.00;;
48987;SDS011;34799;51.440;-2.534;2023-07-24T06:45:59;0.10;;;0.10;;
48987;SDS011;34799;51.440;-2.534;2023-07-24T06:48:26;0.20;;;0.00;;
48987;SDS011;34799;51.440;-2.534;2023-07-24T06:50:54;0.00;;;0.00;;
48987;SDS011;34799;51.440;-2.534;2023-07-24T06:53:21;0.00;;;0.00;;
48987;SDS011;34799;51.440;-2.534;2023-07-24T06:55:48;0.17;;;0.00;;
48987;SDS011;34799;51.440;-2.534;2023-07-24T06:58:15;0.13;;;0.10;;
48987;SDS011;34799;51.440;-2.534;2023-07-24T07:00:43;0.25;;;0.00;;
48987;SDS011;34799;51.440;-2.534;2023-07-24T07:03:10;0.10;;;0.00;;
48987;SDS011;34799;51.440;-2.534;2023-07-24T07:05:37;0.00;;;0.00;;
48987;SDS011;34799;51.440;-2.534;2023-07-24T07:08:05;1.42;;;0.10;;
48987;SDS011;34799;51.440;-2.534;2023-07-24T07:10:32;0.00;;;0.00;;
48987;SDS011;34799;51.440;-2.534;2023-07-24T07:12:59;1.30;;;0.00;;
48987;SDS011;34799;51.440;-2.534;2023-07-24T07:15:27;0.00;;;0.00;;
48987;SDS011;34799;51.440;-2.534;2023-07-24T07:17:54;0.00;;;0.00;;
48987;SDS011;34799;51.440;-2.534;2023-07-24T07:20:21;0.17;;;0.00;;
48987;SDS011;34799;51.440;-2.534;2023-07-24T07:22:49;0.00;;;0.00;;
48987;SDS011;34799;51.440;-2.534;2023-07-24T07:25:16;0.00;;;0.00;;
48987;SDS011;34799;51.440;-2.534;2023-07-24T07:27:43;1.38;;;0.00;;
48987;SDS011;34799;51.440;-2.534;2023-07-24T07:30:11;0.98;;;0.00;;
48987;SDS011;34799;51.440;-2.534;2023-07-24T07:32:38;0.00;;;0.00;;
48987;SDS011;34799;51.440;-2.534;2023-07-24T07:35:06;1.00;;;0.00;;
48987;SDS011;34799;51.440;-2.534;2023-07-24T07:37:33;1.10;;;0.00;;
48987;SDS011;34799;51.440;-2.534;2023-07-24T07:40:00;0.25;;;0.25;;
48987;SDS011;34799;51.440;-2.534;2023-07-24T07:42:27;0.00;;;0.00;;
48987;SDS011;34799;51.440;-2.534;2023-07-24T07:44:54;0.10;;;0.00;;
48987;SDS011;34799;51.440;-2.534;2023-07-24T07:47:22;0.00;;;0.00;;
48987;SDS011;34799;51.440;-2.534;2023-07-24T07:49:49;0.10;;;0.00;;
48987;SDS011;34799;51.440;-2.534;2023-07-24T07:52:16;0.00;;;0.00;;
48987;SDS011;34799;51.440;-2.534;2023-07-24T07:54:47;0.08;;;0.00;;
48987;SDS011;34799;51.440;-2.534;2023-07-24T07:57:15;0.00;;;0.00;;
48987;SDS011;34799;51.440;-2.534;2023-07-24T07:59:42;0.00;;;0.00;;
48987;SDS011;34799;51.440;-2.534;2023-07-24T08:02:09;0.00;;;0.00;;
48987;SDS011;34799;51.440;-2.534;2023-07-24T08:04:36;0.10;;;0.00;;
48987;SDS011;34799;51.440;-2.534;2023-07-24T08:07:03;0.00;;;0.00;;
48987;SDS011;34799;51.440;-2.534;2023-07-24T08:09:30;0.70;;;0.00;;
48987;SDS011;34799;51.440;-2.534;2023-07-24T08:11:59;0.28;;;0.00;;
48987;SDS011;34799;51.440;-2.534;2023-07-24T08:14:26;0.00;;;0.00;;
48987;SDS011;34799;51.440;-2.534;2023-07-24T08:16:53;1.98;;;0.00;;
48987;SDS011;34799;51.440;-2.534;2023-07-24T08:19:20;0.00;;;0.00;;
48987;SDS011;34799;51.440;-2.534;2023-07-24T08:21:47;0.30;;;0.00;;
48987;SDS011;34799;51.440;-2.534;2023-07-24T08:24:14;0.10;;;0.00;;
48987;SDS011;34799;51.440;-2.534;2023-07-24T08:26:41;0.22;;;0.00;;
48987;SDS011;34799;51.440;-2.534;2023-07-24T08:29:08;0.30;;;0.00;;
48987;SDS011;34799;51.440;-2.534;2023-07-24T08:31:35;0.17;;;0.00;;
48987;SDS011;34799;51.440;-2.534;2023-07-24T08:34:02;0.10;;;0.00;;
48987;SDS011;34799;51.440;-2.534;2023-07-24T08:36:29;0.00;;;0.00;;
48987;SDS011;34799;51.440;-2.534;2023-07-24T08:38:56;0.05;;;0.00;;
48987;SDS011;34799;51.440;-2.534;2023-07-24T08:41:23;0.05;;;0.00;;
48987;SDS011;34799;51.440;-2.534;2023-07-24T08:43:51;1.25;;;0.00;;
48987;SDS011;34799;51.440;-2.534;2023-07-24T08:46:20;0.00;;;0.00;;
48987;SDS011;34799;51.440;-2.534;2023-07-24T08:48:47;4.05;;;0.90;;
48987;SDS011;34799;51.440;-2.534;2023-07-24T08:51:15;1.38;;;0.00;;
48987;SDS011;34799;51.440;-2.534;2023-07-24T08:53:51;0.10;;;0.00;;
48987;SDS011;34799;51.440;-2.534;2023-07-24T08:56:19;0.10;;;0.00;;
48987;SDS011;34799;51.440;-2.534;2023-07-24T08:58:46;0.30;;;0.08;;
48987;SDS011;34799;51.440;-2.534;2023-07-24T09:01:14;1.15;;;0.10;;
48987;SDS011;34799;51.440;-2.534;2023-07-24T09:03:41;0.82;;;0.10;;
48987;SDS011;34799;51.440;-2.534;2023-07-24T09:06:08;1.08;;;0.00;;
48987;SDS011;34799;51.440;-2.534;2023-07-24T09:11:08;0.50;;;0.10;;
48987;SDS011;34799;51.440;-2.534;2023-07-24T09:13:37;0.80;;;0.00;;
48987;SDS011;34799;51.440;-2.534;2023-07-24T09:16:07;0.45;;;0.10;;
48987;SDS011;34799;51.440;-2.534;2023-07-24T09:18:40;0.40;;;0.00;;
48987;SDS011;34799;51.440;-2.534;2023-07-24T09:21:09;0.10;;;0.00;;
48987;SDS011;34799;51.440;-2.534;2023-07-24T09:23:38;0.00;;;0.00;;
48987;SDS011;34799;51.440;-2.534;2023-07-24T09:26:11;1.83;;;0.10;;
48987;SDS011;34799;51.440;-2.534;2023-07-24T09:28:38;0.00;;;0.00;;
48987;SDS011;34799;51.440;-2.534;2023-07-24T09:31:05;0.17;;;0.00;;
48987;SDS011;34799;51.440;-2.534;2023-07-24T09:33:36;0.40;;;0.00;;
48987;SDS011;34799;51.440;-2.534;2023-07-24T09:36:06;0.45;;;0.00;;
48987;SDS011;34799;51.440;-2.534;2023-07-24T09:38:37;1.55;;;0.57;;
48987;SDS011;34799;51.440;-2.534;2023-07-24T09:41:05;0.38;;;0.03;;
48987;SDS011;34799;51.440;-2.534;2023-07-24T09:43:33;0.00;;;0.00;;
48987;SDS011;34799;51.440;-2.534;2023-07-24T09:46:06;0.15;;;0.15;;
48987;SDS011;34799;51.440;-2.534;2023-07-24T09:48:34;0.10;;;0.10;;
48987;SDS011;34799;51.440;-2.534;2023-07-24T09:51:06;0.10;;;0.10;;
48987;SDS011;34799;51.440;-2.534;2023-07-24T09:53:39;1.05;;;0.10;;
48987;SDS011;34799;51.440;-2.534;2023-07-24T09:56:31;0.10;;;0.10;;
48987;SDS011;34799;51.440;-2.534;2023-07-24T09:59:09;0.10;;;0.10;;
48987;SDS011;34799;51.440;-2.534;2023-07-24T10:01:38;0.15;;;0.10;;
48987;SDS011;34799;51.440;-2.534;2023-07-24T10:04:06;0.20;;;0.10;;
48987;SDS011;34799;51.440;-2.534;2023-07-24T10:06:34;1.02;;;0.10;;
48987;SDS011;34799;51.440;-2.534;2023-07-24T10:09:01;0.65;;;0.13;;
48987;SDS011;34799;51.440;-2.534;2023-07-24T10:11:29;0.77;;;0.20;;
48987;SDS011;34799;51.440;-2.534;2023-07-24T10:13:56;1.73;;;0.10;;
48987;SDS011;34799;51.440;-2.534;2023-07-24T10:16:24;0.20;;;0.10;;
48987;SDS011;34799;51.440;-2.534;2023-07-24T10:18:51;1.58;;;0.20;;
48987;SDS011;34799;51.440;-2.534;2023-07-24T10:21:18;0.10;;;0.05;;
48987;SDS011;34799;51.440;-2.534;2023-07-24T10:23:53;0.33;;;0.10;;
48987;SDS011;34799;51.440;-2.534;2023-07-24T10:26:24;1.05;;;0.10;;
48987;SDS011;34799;51.440;-2.534;2023-07-24T10:28:53;0.65;;;0.10;;
48987;SDS011;34799;51.440;-2.534;2023-07-24T10:31:23;0.30;;;0.10;;
48987;SDS011;34799;51.440;-2.534;2023-07-24T10:34:04;0.30;;;0.10;;
48987;SDS011;34799;51.440;-2.534;2023-07-24T10:36:36;1.10;;;0.17;;
48987;SDS011;34799;51.440;-2.534;2023-07-24T10:39:12;0.32;;;0.10;;
48987;SDS011;34799;51.440;-2.534;2023-07-24T10:41:41;0.25;;;0.10;;
48987;SDS011;34799;51.440;-2.534;2023-07-24T10:44:10;0.40;;;0.10;;
48987;SDS011;34799;51.440;-2.534;2023-07-24T10:46:41;1.00;;;0.15;;
48987;SDS011;34799;51.440;-2.534;2023-07-24T10:49:11;0.45;;;0.10;;
48987;SDS011;34799;51.440;-2.534;2023-07-24T10:51:38;1.27;;;0.22;;
48987;SDS011;34799;51.440;-2.534;2023-07-24T10:54:06;0.30;;;0.10;;
48987;SDS011;34799;51.440;-2.534;2023-07-24T10:56:33;0.47;;;0.10;;
48987;SDS011;34799;51.440;-2.534;2023-07-24T10:59:03;0.17;;;0.10;;
48987;SDS011;34799;51.440;-2.534;2023-07-24T11:01:30;0.73;;;0.10;;
48987;SDS011;34799;51.440;-2.534;2023-07-24T11:03:59;0.80;;;0.00;;
48987;SDS011;34799;51.440;-2.534;2023-07-24T11:06:26;0.20;;;0.10;;
48987;SDS011;34799;51.440;-2.534;2023-07-24T11:08:57;0.20;;;0.10;;
48987;SDS011;34799;51.440;-2.534;2023-07-24T11:11:29;0.20;;;0.10;;
48987;SDS011;34799;51.440;-2.534;2023-07-24T11:13:57;0.25;;;0.10;;
48987;SDS011;34799;51.440;-2.534;2023-07-24T11:16:24;1.15;;;0.10;;
48987;SDS011;34799;51.440;-2.534;2023-07-24T11:18:52;0.28;;;0.03;;
48987;SDS011;34799;51.440;-2.534;2023-07-24T11:21:20;1.42;;;0.10;;
48987;SDS011;34799;51.440;-2.534;2023-07-24T11:23:52;0.75;;;0.10;;
48987;SDS011;34799;51.440;-2.534;2023-07-24T11:26:21;0.98;;;0.10;;
48987;SDS011;34799;51.440;-2.534;2023-07-24T11:28:50;1.10;;;0.20;;
48987;SDS011;34799;51.440;-2.534;2023-07-24T11:31:17;0.45;;;0.25;;
48987;SDS011;34799;51.440;-2.534;2023-07-24T11:33:48;1.08;;;0.20;;
48987;SDS011;34799;51.440;-2.534;2023-07-24T11:36:17;1.10;;;0.20;;
48987;SDS011;34799;51.440;-2.534;2023-07-24T11:38:45;0.30;;;0.10;;
48987;SDS011;34799;51.440;-2.534;2023-07-24T11:41:13;0.28;;;0.13;;
48987;SDS011;34799;51.440;-2.534;2023-07-24T11:43:48;0.20;;;0.10;;
48987;SDS011;34799;51.440;-2.534;2023-07-24T11:46:26;0.28;;;0.10;;
48987;SDS011;34799;51.440;-2.534;2023-07-24T11:48:55;0.45;;;0.10;;
48987;SDS011;34799;51.440;-2.534;2023-07-24T11:51:26;0.40;;;0.20;;
48987;SDS011;34799;51.440;-2.534;2023-07-24T11:54:08;0.38;;;0.20;;
48987;SDS011;34799;51.440;-2.534;2023-07-24T11:56:39;0.22;;;0.17;;
48987;SDS011;34799;51.440;-2.534;2023-07-24T11:59:10;0.20;;;0.10;;
48987;SDS011;34799;51.440;-2.534;2023-07-24T12:01:38;0.20;;;0.10;;
48987;SDS011;34799;51.440;-2.534;2023-07-24T12:04:05;0.50;;;0.20;;
48987;SDS011;34799;51.440;-2.534;2023-07-24T12:06:32;0.47;;;0.17;;
48987;SDS011;34799;51.440;-2.534;2023-07-24T12:09:03;0.52;;;0.20;;
48987;SDS011;34799;51.440;-2.534;2023-07-24T12:11:32;0.38;;;0.20;;
48987;SDS011;34799;51.440;-2.534;2023-07-24T12:14:01;0.57;;;0.20;;
48987;SDS011;34799;51.440;-2.534;2023-07-24T12:16:28;1.85;;;0.20;;
48987;SDS011;34799;51.440;-2.534;2023-07-24T12:18:57;1.63;;;0.30;;
48987;SDS011;34799;51.440;-2.534;2023-07-24T12:21:24;0.82;;;0.28;;
48987;SDS011;34799;51.440;-2.534;2023-07-24T12:23:51;2.90;;;0.20;;
48987;SDS011;34799;51.440;-2.534;2023-07-24T12:26:18;0.77;;;0.28;;
48987;SDS011;34799;51.440;-2.534;2023-07-24T12:28:45;0.80;;;0.35;;
48987;SDS011;34799;51.440;-2.534;2023-07-24T12:31:13;1.67;;;0.28;;
48987;SDS011;34799;51.440;-2.534;2023-07-24T12:33:40;0.70;;;0.22;;
48987;SDS011;34799;51.440;-2.534;2023-07-24T12:36:07;1.02;;;0.25;;
48987;SDS011;34799;51.440;-2.534;2023-07-24T12:38:35;0.52;;;0.30;;
48987;SDS011;34799;51.440;-2.534;2023-07-24T12:41:02;0.38;;;0.20;;
48987;SDS011;34799;51.440;-2.534;2023-07-24T12:43:30;1.08;;;0.40;;
48987;SDS011;34799;51.440;-2.534;2023-07-24T12:45:57;0.38;;;0.20;;
48987;SDS011;34799;51.440;-2.534;2023-07-24T12:48:24;2.95;;;0.65;;
48987;SDS011;34799;51.440;-2.534;2023-07-24T12:50:51;1.35;;;0.30;;
48987;SDS011;34799;51.440;-2.534;2023-07-24T12:53:18;1.13;;;0.40;;
48987;SDS011;34799;51.440;-2.534;2023-07-24T12:55:46;0.40;;;0.20;;
48987;SDS011;34799;51.440;-2.534;2023-07-24T12:58:13;1.60;;;0.30;;
48987;SDS011;34799;51.440;-2.534;2023-07-24T13:00:40;0.40;;;0.30;;
48987;SDS011;34799;51.440;-2.534;2023-07-24T13:03:08;1.92;;;0.40;;
48987;SDS011;34799;51.440;-2.534;2023-07-24T13:05:35;1.10;;;0.50;;
48987;SDS011;34799;51.440;-2.534;2023-07-24T13:08:03;1.95;;;0.70;;
48987;SDS011;34799;51.440;-2.534;2023-07-24T13:10:30;4.75;;;1.15;;
48987;SDS011;34799;51.440;-2.534;2023-07-24T13:12:57;2.40;;;0.77;;
48987;SDS011;34799;51.440;-2.534;2023-07-24T13:15:24;1.05;;;0.60;;
48987;SDS011;34799;51.440;-2.534;2023-07-24T13:17:52;2.38;;;0.75;;
48987;SDS011;34799;51.440;-2.534;2023-07-24T13:20:19;2.42;;;1.13;;
48987;SDS011;34799;51.440;-2.534;2023-07-24T13:22:46;1.67;;;0.93;;
48987;SDS011;34799;51.440;-2.534;2023-07-24T13:25:15;4.32;;;1.10;;
48987;SDS011;34799;51.440;-2.534;2023-07-24T13:27:42;3.03;;;0.90;;
48987;SDS011;34799;51.440;-2.534;2023-07-24T13:30:09;3.08;;;1.25;;
48987;SDS011;34799;51.440;-2.534;2023-07-24T13:32:36;2.75;;;1.00;;
48987;SDS011;34799;51.440;-2.534;2023-07-24T13:35:03;7.00;;;1.10;;
48987;SDS011;34799;51.440;-2.534;2023-07-24T13:37:31;2.40;;;0.95;;
48987;SDS011;34799;51.440;-2.534;2023-07-24T13:39:58;3.45;;;1.10;;
48987;SDS011;34799;51.440;-2.534;2023-07-24T13:42:25;3.92;;;0.90;;
48987;SDS011;34799;51.440;-2.534;2023-07-24T13:44:52;2.75;;;0.90;;
48987;SDS011;34799;51.440;-2.534;2023-07-24T13:47:19;3.83;;;0.80;;
48987;SDS011;34799;51.440;-2.534;2023-07-24T13:49:47;1.38;;;0.60;;
48987;SDS011;34799;51.440;-2.534;2023-07-24T13:52:15;2.60;;;0.77;;
48987;SDS011;34799;51.440;-2.534;2023-07-24T13:54:42;1.83;;;0.70;;
48987;SDS011;34799;51.440;-2.534;2023-07-24T13:57:09;2.08;;;0.88;;
48987;SDS011;34799;51.440;-2.534;2023-07-24T13:59:36;3.45;;;0.60;;
48987;SDS011;34799;51.440;-2.534;2023-07-24T14:02:06;1.67;;;0.55;;
48987;SDS011;34799;51.440;-2.534;2023-07-24T14:04:37;2.08;;;0.40;;
48987;SDS011;34799;51.440;-2.534;2023-07-24T14:07:05;1.40;;;0.60;;
48987;SDS011;34799;51.440;-2.534;2023-07-24T14:09:33;1.20;;;0.50;;
48987;SDS011;34799;51.440;-2.534;2023-07-24T14:12:01;4.07;;;0.60;;
48987;SDS011;34799;51.440;-2.534;2023-07-24T14:14:29;3.10;;;0.60;;
48987;SDS011;34799;51.440;-2.534;2023-07-24T14:16:56;3.03;;;0.70;;
48987;SDS011;34799;51.440;-2.534;2023-07-24T14:19:23;1.10;;;0.50;;
48987;SDS011;34799;51.440;-2.534;2023-07-24T14:21:50;2.25;;;0.82;;
48987;SDS011;34799;51.440;-2.534;2023-07-24T14:24:18;2.80;;;0.80;;
48987;SDS011;34799;51.440;-2.534;2023-07-24T14:26:46;2.03;;;0.93;;
48987;SDS011;34799;51.440;-2.534;2023-07-24T14:29:13;1.42;;;0.45;;
48987;SDS011;34799;51.440;-2.534;2023-07-24T14:31:43;3.30;;;0.65;;
48987;SDS011;34799;51.440;-2.534;2023-07-24T14:34:10;2.55;;;0.65;;
48987;SDS011;34799;51.440;-2.534;2023-07-24T14:36:38;2.70;;;0.85;;
48987;SDS011;34799;51.440;-2.534;2023-07-24T14:39:06;5.43;;;1.00;;
48987;SDS011;34799;51.440;-2.534;2023-07-24T14:41:34;4.03;;;0.90;;
48987;SDS011;34799;51.440;-2.534;2023-07-24T14:44:01;3.10;;;0.60;;
48987;SDS011;34799;51.440;-2.534;2023-07-24T14:46:28;3.15;;;0.75;;